sensor_id;sensor_type;location;lat;lon;timestamp;temperature;humidity
39983;DHT22;25670;44.782;10.356;2023-05-07T00:01:19;16.80;99.90
39983;DHT22;25670;44.782;10.356;2023-05-07T00:03:45;16.70;99.90
39983;DHT22;25670;44.782;10.356;2023-05-07T00:06:11;16.70;99.90
39983;DHT22;25670;44.782;10.356;2023-05-07T00:08:38;16.60;99.90
39983;DHT22;25670;44.782;10.356;2023-05-07T00:11:04;16.60;99.90
39983;DHT22;25670;44.782;10.356;2023-05-07T00:13:31;16.50;99.90
39983;DHT22;25670;44.782;10.356;2023-05-07T00:16:05;16.50;99.90
39983;DHT22;25670;44.782;10.356;2023-05-07T00:20:58;16.50;99.90
39983;DHT22;25670;44.782;10.356;2023-05-07T00:23:24;16.50;99.90
39983;DHT22;25670;44.782;10.356;2023-05-07T00:25:50;16.50;99.90
39983;DHT22;25670;44.782;10.356;2023-05-07T00:28:16;16.50;99.90
39983;DHT22;25670;44.782;10.356;2023-05-07T00:30:43;16.50;99.90
39983;DHT22;25670;44.782;10.356;2023-05-07T00:33:09;16.50;99.90
39983;DHT22;25670;44.782;10.356;2023-05-07T00:35:36;16.50;99.90
39983;DHT22;25670;44.782;10.356;2023-05-07T00:38:02;16.40;99.90
39983;DHT22;25670;44.782;10.356;2023-05-07T00:40:28;16.40;99.90
39983;DHT22;25670;44.782;10.356;2023-05-07T00:42:54;16.40;99.90
39983;DHT22;25670;44.782;10.356;2023-05-07T00:45:26;16.40;99.90
39983;DHT22;25670;44.782;10.356;2023-05-07T00:47:58;16.30;99.90
39983;DHT22;25670;44.782;10.356;2023-05-07T00:50:25;16.20;99.90
39983;DHT22;25670;44.782;10.356;2023-05-07T00:52:51;16.10;99.90
39983;DHT22;25670;44.782;10.356;2023-05-07T00:57:46;16.00;99.90
39983;DHT22;25670;44.782;10.356;2023-05-07T01:00:12;16.00;99.90
39983;DHT22;25670;44.782;10.356;2023-05-07T01:02:39;15.90;99.90
39983;DHT22;25670;44.782;10.356;2023-05-07T01:05:07;15.80;99.90
39983;DHT22;25670;44.782;10.356;2023-05-07T01:07:35;15.80;99.90
39983;DHT22;25670;44.782;10.356;2023-05-07T01:10:03;15.70;99.90
39983;DHT22;25670;44.782;10.356;2023-05-07T01:12:30;15.60;99.90
39983;DHT22;25670;44.782;10.356;2023-05-07T01:14:57;15.60;99.90
39983;DHT22;25670;44.782;10.356;2023-05-07T01:17:24;15.50;99.90
39983;DHT22;25670;44.782;10.356;2023-05-07T01:24:59;15.60;99.90
39983;DHT22;25670;44.782;10.356;2023-05-07T01:27:28;15.50;99.90
39983;DHT22;25670;44.782;10.356;2023-05-07T01:29:55;15.50;99.90
39983;DHT22;25670;44.782;10.356;2023-05-07T01:32:41;15.50;99.90
39983;DHT22;25670;44.782;10.356;2023-05-07T01:35:11;15.50;99.90
39983;DHT22;25670;44.782;10.356;2023-05-07T01:37:39;15.50;99.90
39983;DHT22;25670;44.782;10.356;2023-05-07T01:40:07;15.60;99.90
39983;DHT22;25670;44.782;10.356;2023-05-07T01:42:34;15.50;99.90
39983;DHT22;25670;44.782;10.356;2023-05-07T01:45:00;15.50;99.90
39983;DHT22;25670;44.782;10.356;2023-05-07T01:49:53;16.90;99.90
39983;DHT22;25670;44.782;10.356;2023-05-07T01:52:19;15.50;99.90
39983;DHT22;25670;44.782;10.356;2023-05-07T01:54:46;15.50;99.90
39983;DHT22;25670;44.782;10.356;2023-05-07T01:57:12;15.50;99.90
39983;DHT22;25670;44.782;10.356;2023-05-07T02:02:05;15.60;99.90
39983;DHT22;25670;44.782;10.356;2023-05-07T02:04:32;15.60;99.90
39983;DHT22;25670;44.782;10.356;2023-05-07T02:06:59;15.60;99.90
39983;DHT22;25670;44.782;10.356;2023-05-07T02:09:25;15.60;99.90
39983;DHT22;25670;44.782;10.356;2023-05-07T02:11:51;15.60;99.90
39983;DHT22;25670;44.782;10.356;2023-05-07T02:14:19;15.60;99.90
39983;DHT22;25670;44.782;10.356;2023-05-07T02:16:46;15.60;99.90
39983;DHT22;25670;44.782;10.356;2023-05-07T02:19:14;15.60;99.90
39983;DHT22;25670;44.782;10.356;2023-05-07T02:21:40;15.50;99.90
39983;DHT22;25670;44.782;10.356;2023-05-07T02:24:06;15.50;99.90
39983;DHT22;25670;44.782;10.356;2023-05-07T02:26:33;15.10;99.90
39983;DHT22;25670;44.782;10.356;2023-05-07T02:29:00;15.40;99.90
39983;DHT22;25670;44.782;10.356;2023-05-07T02:31:26;15.50;99.90
39983;DHT22;25670;44.782;10.356;2023-05-07T02:33:53;15.50;99.90
39983;DHT22;25670;44.782;10.356;2023-05-07T02:36:19;15.50;99.90
39983;DHT22;25670;44.782;10.356;2023-05-07T02:38:58;15.40;99.90
39983;DHT22;25670;44.782;10.356;2023-05-07T02:41:24;15.40;99.90
39983;DHT22;25670;44.782;10.356;2023-05-07T02:43:51;15.40;99.90
39983;DHT22;25670;44.782;10.356;2023-05-07T02:46:17;15.50;99.90
39983;DHT22;25670;44.782;10.356;2023-05-07T02:48:47;15.60;99.90
39983;DHT22;25670;44.782;10.356;2023-05-07T02:51:13;15.70;99.90
39983;DHT22;25670;44.782;10.356;2023-05-07T02:53:42;15.80;99.90
39983;DHT22;25670;44.782;10.356;2023-05-07T02:56:08;15.80;99.90
39983;DHT22;25670;44.782;10.356;2023-05-07T02:58:34;15.80;99.90
39983;DHT22;25670;44.782;10.356;2023-05-07T03:03:35;15.90;99.90
39983;DHT22;25670;44.782;10.356;2023-05-07T03:06:01;16.00;99.90
39983;DHT22;25670;44.782;10.356;2023-05-07T03:08:28;16.00;99.90
39983;DHT22;25670;44.782;10.356;2023-05-07T03:10:54;16.00;99.90
39983;DHT22;25670;44.782;10.356;2023-05-07T03:13:20;16.00;99.90
39983;DHT22;25670;44.782;10.356;2023-05-07T03:15:47;16.00;99.90
39983;DHT22;25670;44.782;10.356;2023-05-07T03:18:14;16.00;99.90
39983;DHT22;25670;44.782;10.356;2023-05-07T03:20:40;15.90;99.90
39983;DHT22;25670;44.782;10.356;2023-05-07T03:23:06;15.90;99.90
39983;DHT22;25670;44.782;10.356;2023-05-07T03:25:32;15.90;99.90
39983;DHT22;25670;44.782;10.356;2023-05-07T03:27:59;15.90;99.90
39983;DHT22;25670;44.782;10.356;2023-05-07T03:30:34;15.80;99.90
39983;DHT22;25670;44.782;10.356;2023-05-07T03:33:00;15.80;99.90
39983;DHT22;25670;44.782;10.356;2023-05-07T03:35:26;15.70;99.90
39983;DHT22;25670;44.782;10.356;2023-05-07T03:37:52;15.70;99.90
39983;DHT22;25670;44.782;10.356;2023-05-07T03:40:20;15.60;99.90
39983;DHT22;25670;44.782;10.356;2023-05-07T03:42:51;15.60;99.90
39983;DHT22;25670;44.782;10.356;2023-05-07T03:45:19;15.50;99.90
39983;DHT22;25670;44.782;10.356;2023-05-07T03:47:51;15.50;99.90
39983;DHT22;25670;44.782;10.356;2023-05-07T03:50:20;15.50;99.90
39983;DHT22;25670;44.782;10.356;2023-05-07T03:52:46;15.60;99.90
39983;DHT22;25670;44.782;10.356;2023-05-07T03:55:15;16.00;99.90
39983;DHT22;25670;44.782;10.356;2023-05-07T03:57:47;15.40;99.90
39983;DHT22;25670;44.782;10.356;2023-05-07T04:00:14;15.40;99.90
39983;DHT22;25670;44.782;10.356;2023-05-07T04:02:49;15.30;99.90
39983;DHT22;25670;44.782;10.356;2023-05-07T04:05:21;15.20;99.90
39983;DHT22;25670;44.782;10.356;2023-05-07T04:07:51;15.20;99.90
39983;DHT22;25670;44.782;10.356;2023-05-07T04:10:22;15.10;99.90
39983;DHT22;25670;44.782;10.356;2023-05-07T04:12:51;15.10;99.90
39983;DHT22;25670;44.782;10.356;2023-05-07T04:15:21;15.10;99.90
39983;DHT22;25670;44.782;10.356;2023-05-07T04:17:47;15.00;99.90
39983;DHT22;25670;44.782;10.356;2023-05-07T04:20:16;15.00;99.90
39983;DHT22;25670;44.782;10.356;2023-05-07T04:22:46;15.00;99.90
39983;DHT22;25670;44.782;10.356;2023-05-07T04:25:12;15.00;99.90
39983;DHT22;25670;44.782;10.356;2023-05-07T04:27:39;15.00;99.90
39983;DHT22;25670;44.782;10.356;2023-05-07T04:30:06;15.00;99.90
39983;DHT22;25670;44.782;10.356;2023-05-07T04:32:36;15.10;99.90
39983;DHT22;25670;44.782;10.356;2023-05-07T04:35:04;15.10;99.90
39983;DHT22;25670;44.782;10.356;2023-05-07T04:37:32;15.00;99.90
39983;DHT22;25670;44.782;10.356;2023-05-07T04:39:59;15.00;99.90
39983;DHT22;25670;44.782;10.356;2023-05-07T04:42:26;15.00;99.90
39983;DHT22;25670;44.782;10.356;2023-05-07T04:44:53;15.00;99.90
39983;DHT22;25670;44.782;10.356;2023-05-07T04:47:22;15.00;99.90
39983;DHT22;25670;44.782;10.356;2023-05-07T04:49:48;15.10;99.90
39983;DHT22;25670;44.782;10.356;2023-05-07T04:52:14;15.10;99.90
39983;DHT22;25670;44.782;10.356;2023-05-07T04:54:41;15.20;99.90
39983;DHT22;25670;44.782;10.356;2023-05-07T04:57:08;15.30;99.90
39983;DHT22;25670;44.782;10.356;2023-05-07T04:59:35;15.10;99.90
39983;DHT22;25670;44.782;10.356;2023-05-07T05:02:01;15.50;99.90
39983;DHT22;25670;44.782;10.356;2023-05-07T05:04:28;15.60;99.90
39983;DHT22;25670;44.782;10.356;2023-05-07T05:19:09;15.90;99.90
39983;DHT22;25670;44.782;10.356;2023-05-07T05:38:55;16.30;99.90
39983;DHT22;25670;44.782;10.356;2023-05-07T05:56:06;16.40;99.90
39983;DHT22;25670;44.782;10.356;2023-05-07T05:58:36;16.60;99.90
39983;DHT22;25670;44.782;10.356;2023-05-07T06:01:06;16.60;99.90
39983;DHT22;25670;44.782;10.356;2023-05-07T06:11:01;17.20;99.90
39983;DHT22;25670;44.782;10.356;2023-05-07T06:13:30;17.10;99.90
39983;DHT22;25670;44.782;10.356;2023-05-07T06:15:56;17.30;99.90
39983;DHT22;25670;44.782;10.356;2023-05-07T06:18:22;17.40;99.90
39983;DHT22;25670;44.782;10.356;2023-05-07T06:20:49;17.60;99.90
39983;DHT22;25670;44.782;10.356;2023-05-07T06:23:23;17.70;99.90
39983;DHT22;25670;44.782;10.356;2023-05-07T06:25:50;17.70;99.90
39983;DHT22;25670;44.782;10.356;2023-05-07T06:28:19;17.70;99.90
39983;DHT22;25670;44.782;10.356;2023-05-07T06:30:46;17.80;99.90
39983;DHT22;25670;44.782;10.356;2023-05-07T06:33:15;17.80;99.90
39983;DHT22;25670;44.782;10.356;2023-05-07T06:35:42;17.80;99.90
39983;DHT22;25670;44.782;10.356;2023-05-07T06:38:08;17.90;99.90
39983;DHT22;25670;44.782;10.356;2023-05-07T06:40:35;17.90;99.90
39983;DHT22;25670;44.782;10.356;2023-05-07T06:48:04;18.40;99.90
39983;DHT22;25670;44.782;10.356;2023-05-07T06:50:35;18.40;99.90
39983;DHT22;25670;44.782;10.356;2023-05-07T06:57:56;18.70;99.90
39983;DHT22;25670;44.782;10.356;2023-05-07T07:00:27;18.80;99.90
39983;DHT22;25670;44.782;10.356;2023-05-07T07:10:20;19.10;99.90
39983;DHT22;25670;44.782;10.356;2023-05-07T07:12:47;19.10;99.90
39983;DHT22;25670;44.782;10.356;2023-05-07T07:15:14;18.60;99.90
39983;DHT22;25670;44.782;10.356;2023-05-07T07:20:11;19.40;99.90
39983;DHT22;25670;44.782;10.356;2023-05-07T07:29:57;19.60;99.90
39983;DHT22;25670;44.782;10.356;2023-05-07T07:37:19;20.30;99.90
39983;DHT22;25670;44.782;10.356;2023-05-07T07:39:48;19.80;99.90
39983;DHT22;25670;44.782;10.356;2023-05-07T07:44:50;20.50;99.90
39983;DHT22;25670;44.782;10.356;2023-05-07T07:47:20;20.80;99.90
39983;DHT22;25670;44.782;10.356;2023-05-07T07:49:47;20.80;99.90
39983;DHT22;25670;44.782;10.356;2023-05-07T07:52:14;20.60;99.90
39983;DHT22;25670;44.782;10.356;2023-05-07T07:59:36;20.60;99.90
39983;DHT22;25670;44.782;10.356;2023-05-07T08:04:31;20.20;99.90
39983;DHT22;25670;44.782;10.356;2023-05-07T08:07:02;20.90;99.90
39983;DHT22;25670;44.782;10.356;2023-05-07T08:16:54;21.10;99.90
39983;DHT22;25670;44.782;10.356;2023-05-07T08:19:21;21.40;99.90
39983;DHT22;25670;44.782;10.356;2023-05-07T08:21:48;21.10;99.90
39983;DHT22;25670;44.782;10.356;2023-05-07T08:24:15;21.70;99.90
39983;DHT22;25670;44.782;10.356;2023-05-07T08:31:36;21.90;99.90
39983;DHT22;25670;44.782;10.356;2023-05-07T08:34:03;22.40;99.90
39983;DHT22;25670;44.782;10.356;2023-05-07T08:38:56;22.70;99.90
39983;DHT22;25670;44.782;10.356;2023-05-07T08:43:50;22.50;99.90
39983;DHT22;25670;44.782;10.356;2023-05-07T08:46:19;22.70;99.90
39983;DHT22;25670;44.782;10.356;2023-05-07T08:48:50;22.80;99.90
39983;DHT22;25670;44.782;10.356;2023-05-07T08:51:19;23.00;99.90
39983;DHT22;25670;44.782;10.356;2023-05-07T08:53:48;22.80;99.90
39983;DHT22;25670;44.782;10.356;2023-05-07T08:56:20;22.80;99.90
39983;DHT22;25670;44.782;10.356;2023-05-07T08:58:47;23.10;99.90
39983;DHT22;25670;44.782;10.356;2023-05-07T09:01:15;23.00;99.90
39983;DHT22;25670;44.782;10.356;2023-05-07T09:03:45;22.80;99.90
39983;DHT22;25670;44.782;10.356;2023-05-07T09:06:12;23.00;99.90
39983;DHT22;25670;44.782;10.356;2023-05-07T09:08:39;23.10;99.90
39983;DHT22;25670;44.782;10.356;2023-05-07T09:11:06;23.30;99.90
39983;DHT22;25670;44.782;10.356;2023-05-07T09:13:33;23.10;99.90
39983;DHT22;25670;44.782;10.356;2023-05-07T09:16:11;23.30;99.90
39983;DHT22;25670;44.782;10.356;2023-05-07T09:18:42;23.40;99.90
39983;DHT22;25670;44.782;10.356;2023-05-07T09:21:14;23.50;99.90
39983;DHT22;25670;44.782;10.356;2023-05-07T09:23:41;23.70;99.90
39983;DHT22;25670;44.782;10.356;2023-05-07T09:26:07;23.80;99.90
39983;DHT22;25670;44.782;10.356;2023-05-07T09:28:39;24.20;99.90
39983;DHT22;25670;44.782;10.356;2023-05-07T09:31:07;24.00;99.90
39983;DHT22;25670;44.782;10.356;2023-05-07T09:33:33;24.30;99.90
39983;DHT22;25670;44.782;10.356;2023-05-07T09:36:07;24.30;99.90
39983;DHT22;25670;44.782;10.356;2023-05-07T09:38:35;24.30;99.90
39983;DHT22;25670;44.782;10.356;2023-05-07T09:41:12;24.30;99.90
39983;DHT22;25670;44.782;10.356;2023-05-07T09:43:53;24.30;99.90
39983;DHT22;25670;44.782;10.356;2023-05-07T09:46:25;24.50;99.90
39983;DHT22;25670;44.782;10.356;2023-05-07T09:48:57;24.50;99.90
39983;DHT22;25670;44.782;10.356;2023-05-07T09:51:51;24.60;99.90
39983;DHT22;25670;44.782;10.356;2023-05-07T09:54:20;24.40;99.90
39983;DHT22;25670;44.782;10.356;2023-05-07T09:56:52;24.60;99.90
39983;DHT22;25670;44.782;10.356;2023-05-07T09:59:22;24.70;99.90
39983;DHT22;25670;44.782;10.356;2023-05-07T10:01:50;24.70;99.90
39983;DHT22;25670;44.782;10.356;2023-05-07T10:04:20;24.70;99.90
39983;DHT22;25670;44.782;10.356;2023-05-07T10:06:47;24.80;99.90
39983;DHT22;25670;44.782;10.356;2023-05-07T10:09:14;25.00;99.90
39983;DHT22;25670;44.782;10.356;2023-05-07T10:11:41;25.20;99.90
39983;DHT22;25670;44.782;10.356;2023-05-07T10:14:09;25.20;99.90
39983;DHT22;25670;44.782;10.356;2023-05-07T10:16:36;24.80;99.90
39983;DHT22;25670;44.782;10.356;2023-05-07T10:19:08;24.80;99.90
39983;DHT22;25670;44.782;10.356;2023-05-07T10:21:48;24.90;99.90
39983;DHT22;25670;44.782;10.356;2023-05-07T10:24:21;25.20;99.90
39983;DHT22;25670;44.782;10.356;2023-05-07T10:26:51;25.40;99.90
39983;DHT22;25670;44.782;10.356;2023-05-07T10:35:00;25.50;99.90
39983;DHT22;25670;44.782;10.356;2023-05-07T10:37:28;25.50;99.90
39983;DHT22;25670;44.782;10.356;2023-05-07T10:39:56;25.70;99.90
39983;DHT22;25670;44.782;10.356;2023-05-07T10:42:24;26.00;99.90
39983;DHT22;25670;44.782;10.356;2023-05-07T10:44:54;25.90;99.90
39983;DHT22;25670;44.782;10.356;2023-05-07T10:47:24;26.20;99.90
39983;DHT22;25670;44.782;10.356;2023-05-07T10:52:27;26.40;99.90
39983;DHT22;25670;44.782;10.356;2023-05-07T11:00:57;26.40;99.90
39983;DHT22;25670;44.782;10.356;2023-05-07T11:03:28;26.50;99.90
39983;DHT22;25670;44.782;10.356;2023-05-07T11:06:09;26.50;99.90
39983;DHT22;25670;44.782;10.356;2023-05-07T11:08:56;29.40;99.90
39983;DHT22;25670;44.782;10.356;2023-05-07T11:11:52;26.90;99.90
39983;DHT22;25670;44.782;10.356;2023-05-07T11:14:43;27.50;99.90
39983;DHT22;25670;44.782;10.356;2023-05-07T11:17:23;27.50;99.90
39983;DHT22;25670;44.782;10.356;2023-05-07T11:19:58;27.60;99.90
39983;DHT22;25670;44.782;10.356;2023-05-07T11:22:47;27.60;99.90
39983;DHT22;25670;44.782;10.356;2023-05-07T11:25:20;27.70;99.90
39983;DHT22;25670;44.782;10.356;2023-05-07T11:27:52;28.00;99.90
39983;DHT22;25670;44.782;10.356;2023-05-07T11:30:19;28.00;99.90
39983;DHT22;25670;44.782;10.356;2023-05-07T11:32:47;28.20;99.90
39983;DHT22;25670;44.782;10.356;2023-05-07T11:35:16;28.40;99.90
39983;DHT22;25670;44.782;10.356;2023-05-07T11:37:46;29.10;99.90
39983;DHT22;25670;44.782;10.356;2023-05-07T11:40:13;28.60;99.90
39983;DHT22;25670;44.782;10.356;2023-05-07T11:42:40;28.80;99.90
39983;DHT22;25670;44.782;10.356;2023-05-07T11:45:10;28.70;99.90
39983;DHT22;25670;44.782;10.356;2023-05-07T11:47:38;28.60;99.90
39983;DHT22;25670;44.782;10.356;2023-05-07T11:50:07;29.20;99.90
39983;DHT22;25670;44.782;10.356;2023-05-07T11:52:34;29.50;99.90
39983;DHT22;25670;44.782;10.356;2023-05-07T11:55:01;29.10;99.90
39983;DHT22;25670;44.782;10.356;2023-05-07T11:57:29;29.20;99.90
39983;DHT22;25670;44.782;10.356;2023-05-07T11:59:59;29.50;99.90
39983;DHT22;25670;44.782;10.356;2023-05-07T12:02:27;29.60;99.90
39983;DHT22;25670;44.782;10.356;2023-05-07T12:04:54;29.90;99.90
39983;DHT22;25670;44.782;10.356;2023-05-07T12:07:21;30.00;99.90
39983;DHT22;25670;44.782;10.356;2023-05-07T12:09:50;29.90;99.90
39983;DHT22;25670;44.782;10.356;2023-05-07T12:12:16;30.30;99.90
39983;DHT22;25670;44.782;10.356;2023-05-07T12:14:44;31.10;99.90
39983;DHT22;25670;44.782;10.356;2023-05-07T12:17:12;32.00;99.90
39983;DHT22;25670;44.782;10.356;2023-05-07T12:19:40;32.00;98.80
39983;DHT22;25670;44.782;10.356;2023-05-07T12:22:10;31.60;98.80
39983;DHT22;25670;44.782;10.356;2023-05-07T12:24:57;31.20;99.50
39983;DHT22;25670;44.782;10.356;2023-05-07T12:27:25;31.20;99.20
39983;DHT22;25670;44.782;10.356;2023-05-07T12:29:51;30.40;98.90
39983;DHT22;25670;44.782;10.356;2023-05-07T12:32:19;30.50;99.90
39983;DHT22;25670;44.782;10.356;2023-05-07T12:34:50;30.50;99.30
39983;DHT22;25670;44.782;10.356;2023-05-07T12:37:22;30.90;99.10
39983;DHT22;25670;44.782;10.356;2023-05-07T12:39:49;31.40;98.70
39983;DHT22;25670;44.782;10.356;2023-05-07T12:42:18;31.90;99.50
39983;DHT22;25670;44.782;10.356;2023-05-07T12:44:46;33.10;97.30
39983;DHT22;25670;44.782;10.356;2023-05-07T12:47:12;34.00;96.70
39983;DHT22;25670;44.782;10.356;2023-05-07T12:49:39;34.30;93.40
39983;DHT22;25670;44.782;10.356;2023-05-07T12:52:06;33.70;93.50
39983;DHT22;25670;44.782;10.356;2023-05-07T12:54:34;33.40;93.90
39983;DHT22;25670;44.782;10.356;2023-05-07T12:57:05;33.10;92.80
39983;DHT22;25670;44.782;10.356;2023-05-07T12:59:33;33.00;93.80
39983;DHT22;25670;44.782;10.356;2023-05-07T13:02:00;33.50;93.30
39983;DHT22;25670;44.782;10.356;2023-05-07T13:04:26;34.40;91.20
39983;DHT22;25670;44.782;10.356;2023-05-07T13:06:52;35.10;90.90
39983;DHT22;25670;44.782;10.356;2023-05-07T13:09:18;35.50;90.80
39983;DHT22;25670;44.782;10.356;2023-05-07T13:11:44;35.80;90.10
39983;DHT22;25670;44.782;10.356;2023-05-07T13:14:10;36.80;87.20
39983;DHT22;25670;44.782;10.356;2023-05-07T13:16:37;36.50;84.20
39983;DHT22;25670;44.782;10.356;2023-05-07T13:19:03;35.80;85.50
39983;DHT22;25670;44.782;10.356;2023-05-07T13:21:30;36.80;84.20
39983;DHT22;25670;44.782;10.356;2023-05-07T13:23:59;37.30;84.20
39983;DHT22;25670;44.782;10.356;2023-05-07T13:26:25;36.80;80.40
39983;DHT22;25670;44.782;10.356;2023-05-07T13:28:53;35.40;82.30
39983;DHT22;25670;44.782;10.356;2023-05-07T13:31:20;35.60;80.90
39983;DHT22;25670;44.782;10.356;2023-05-07T13:33:47;34.40;81.50
39983;DHT22;25670;44.782;10.356;2023-05-07T13:36:13;35.50;83.40
39983;DHT22;25670;44.782;10.356;2023-05-07T13:41:06;36.20;78.30
39983;DHT22;25670;44.782;10.356;2023-05-07T13:43:32;37.10;77.80
39983;DHT22;25670;44.782;10.356;2023-05-07T13:46:00;37.90;78.50
39983;DHT22;25670;44.782;10.356;2023-05-07T13:48:26;37.10;79.60
39983;DHT22;25670;44.782;10.356;2023-05-07T13:50:54;37.50;76.20
39983;DHT22;25670;44.782;10.356;2023-05-07T13:53:20;37.40;75.90
39983;DHT22;25670;44.782;10.356;2023-05-07T13:55:46;37.40;76.50
39983;DHT22;25670;44.782;10.356;2023-05-07T13:58:13;37.50;77.40
39983;DHT22;25670;44.782;10.356;2023-05-07T14:00:42;39.20;74.10
39983;DHT22;25670;44.782;10.356;2023-05-07T14:03:08;39.20;74.10
39983;DHT22;25670;44.782;10.356;2023-05-07T14:05:34;38.90;71.70
39983;DHT22;25670;44.782;10.356;2023-05-07T14:08:01;38.50;73.10
39983;DHT22;25670;44.782;10.356;2023-05-07T14:10:29;38.10;72.80
39983;DHT22;25670;44.782;10.356;2023-05-07T14:12:59;39.00;73.10
39983;DHT22;25670;44.782;10.356;2023-05-07T14:15:25;38.60;71.40
39983;DHT22;25670;44.782;10.356;2023-05-07T14:20:20;38.90;71.00
39983;DHT22;25670;44.782;10.356;2023-05-07T14:22:46;39.50;71.70
39983;DHT22;25670;44.782;10.356;2023-05-07T14:25:13;39.30;70.20
39983;DHT22;25670;44.782;10.356;2023-05-07T14:27:39;39.00;70.40
39983;DHT22;25670;44.782;10.356;2023-05-07T14:30:06;39.40;70.40
39983;DHT22;25670;44.782;10.356;2023-05-07T14:34:59;38.50;67.70
39983;DHT22;25670;44.782;10.356;2023-05-07T14:37:25;38.30;68.50
39983;DHT22;25670;44.782;10.356;2023-05-07T14:39:51;38.90;69.90
39983;DHT22;25670;44.782;10.356;2023-05-07T14:42:17;39.50;69.10
39983;DHT22;25670;44.782;10.356;2023-05-07T14:44:45;39.70;68.10
39983;DHT22;25670;44.782;10.356;2023-05-07T14:47:12;39.20;70.00
39983;DHT22;25670;44.782;10.356;2023-05-07T14:49:39;38.60;67.70
39983;DHT22;25670;44.782;10.356;2023-05-07T14:54:34;37.50;69.00
39983;DHT22;25670;44.782;10.356;2023-05-07T14:57:01;38.50;70.40
39983;DHT22;25670;44.782;10.356;2023-05-07T14:59:28;39.00;68.70
39983;DHT22;25670;44.782;10.356;2023-05-07T15:01:54;38.60;68.00
39983;DHT22;25670;44.782;10.356;2023-05-07T15:04:20;37.40;69.50
39983;DHT22;25670;44.782;10.356;2023-05-07T15:09:13;37.60;69.40
39983;DHT22;25670;44.782;10.356;2023-05-07T15:11:39;37.20;69.40
39983;DHT22;25670;44.782;10.356;2023-05-07T15:14:06;36.30;70.30
39983;DHT22;25670;44.782;10.356;2023-05-07T15:16:32;36.30;71.30
39983;DHT22;25670;44.782;10.356;2023-05-07T15:21:26;35.80;70.60
39983;DHT22;25670;44.782;10.356;2023-05-07T15:23:52;36.00;70.90
39983;DHT22;25670;44.782;10.356;2023-05-07T15:26:19;36.90;70.60
39983;DHT22;25670;44.782;10.356;2023-05-07T15:31:15;39.00;68.40
39983;DHT22;25670;44.782;10.356;2023-05-07T15:33:42;38.30;68.30
39983;DHT22;25670;44.782;10.356;2023-05-07T15:36:08;38.80;67.60
39983;DHT22;25670;44.782;10.356;2023-05-07T15:38:35;38.70;67.40
39983;DHT22;25670;44.782;10.356;2023-05-07T15:41:01;38.10;66.90
39983;DHT22;25670;44.782;10.356;2023-05-07T15:43:27;37.60;68.50
39983;DHT22;25670;44.782;10.356;2023-05-07T15:45:53;37.90;69.20
39983;DHT22;25670;44.782;10.356;2023-05-07T15:48:20;36.40;71.20
39983;DHT22;25670;44.782;10.356;2023-05-07T15:53:13;35.90;71.70
39983;DHT22;25670;44.782;10.356;2023-05-07T15:55:41;33.70;72.70
39983;DHT22;25670;44.782;10.356;2023-05-07T15:58:09;32.90;74.80
39983;DHT22;25670;44.782;10.356;2023-05-07T16:00:35;33.70;76.10
39983;DHT22;25670;44.782;10.356;2023-05-07T16:03:01;33.50;75.30
39983;DHT22;25670;44.782;10.356;2023-05-07T16:05:27;35.90;73.00
39983;DHT22;25670;44.782;10.356;2023-05-07T16:07:54;36.50;70.70
39983;DHT22;25670;44.782;10.356;2023-05-07T16:10:22;36.80;72.00
39983;DHT22;25670;44.782;10.356;2023-05-07T16:12:48;37.00;71.40
39983;DHT22;25670;44.782;10.356;2023-05-07T16:15:14;37.50;70.30
39983;DHT22;25670;44.782;10.356;2023-05-07T16:17:40;37.30;69.20
39983;DHT22;25670;44.782;10.356;2023-05-07T16:20:07;38.20;68.70
39983;DHT22;25670;44.782;10.356;2023-05-07T16:22:34;37.90;69.30
39983;DHT22;25670;44.782;10.356;2023-05-07T16:25:01;35.60;69.80
39983;DHT22;25670;44.782;10.356;2023-05-07T16:27:29;35.30;72.30
39983;DHT22;25670;44.782;10.356;2023-05-07T16:29:56;33.40;73.20
39983;DHT22;25670;44.782;10.356;2023-05-07T16:32:22;32.60;75.90
39983;DHT22;25670;44.782;10.356;2023-05-07T16:34:48;32.20;76.10
39983;DHT22;25670;44.782;10.356;2023-05-07T16:37:14;32.40;75.10
39983;DHT22;25670;44.782;10.356;2023-05-07T16:39:41;32.40;74.60
39983;DHT22;25670;44.782;10.356;2023-05-07T16:42:07;32.90;75.20
39983;DHT22;25670;44.782;10.356;2023-05-07T16:44:34;32.00;75.70
39983;DHT22;25670;44.782;10.356;2023-05-07T16:47:00;31.70;75.70
39983;DHT22;25670;44.782;10.356;2023-05-07T16:51:53;32.10;74.40
39983;DHT22;25670;44.782;10.356;2023-05-07T16:54:19;32.60;74.30
39983;DHT22;25670;44.782;10.356;2023-05-07T16:56:45;33.40;74.20
39983;DHT22;25670;44.782;10.356;2023-05-07T16:59:12;33.70;74.10
39983;DHT22;25670;44.782;10.356;2023-05-07T17:01:38;34.10;73.90
39983;DHT22;25670;44.782;10.356;2023-05-07T17:04:04;34.90;73.10
39983;DHT22;25670;44.782;10.356;2023-05-07T17:06:30;34.60;73.70
39983;DHT22;25670;44.782;10.356;2023-05-07T17:09:00;35.10;72.10
39983;DHT22;25670;44.782;10.356;2023-05-07T17:11:26;35.00;72.50
39983;DHT22;25670;44.782;10.356;2023-05-07T17:14:16;34.80;72.60
39983;DHT22;25670;44.782;10.356;2023-05-07T17:16:42;35.30;72.50
39983;DHT22;25670;44.782;10.356;2023-05-07T17:19:08;34.60;72.70
39983;DHT22;25670;44.782;10.356;2023-05-07T17:21:34;33.10;76.20
39983;DHT22;25670;44.782;10.356;2023-05-07T17:24:00;31.50;77.00
39983;DHT22;25670;44.782;10.356;2023-05-07T17:26:27;30.70;78.10
39983;DHT22;25670;44.782;10.356;2023-05-07T17:31:19;30.00;81.30
39983;DHT22;25670;44.782;10.356;2023-05-07T17:33:45;29.70;82.90
39983;DHT22;25670;44.782;10.356;2023-05-07T17:36:12;28.80;84.20
39983;DHT22;25670;44.782;10.356;2023-05-07T17:38:38;28.30;85.40
39983;DHT22;25670;44.782;10.356;2023-05-07T17:41:04;28.10;85.70
39983;DHT22;25670;44.782;10.356;2023-05-07T17:43:31;27.20;88.60
39983;DHT22;25670;44.782;10.356;2023-05-07T17:45:57;27.20;90.10
39983;DHT22;25670;44.782;10.356;2023-05-07T17:48:23;26.10;91.70
39983;DHT22;25670;44.782;10.356;2023-05-07T17:55:43;25.90;95.30
39983;DHT22;25670;44.782;10.356;2023-05-07T17:58:10;25.20;96.90
39983;DHT22;25670;44.782;10.356;2023-05-07T18:00:37;25.00;99.20
39983;DHT22;25670;44.782;10.356;2023-05-07T18:03:04;24.80;99.90
39983;DHT22;25670;44.782;10.356;2023-05-07T18:05:30;24.90;99.90
39983;DHT22;25670;44.782;10.356;2023-05-07T18:07:57;24.20;99.90
39983;DHT22;25670;44.782;10.356;2023-05-07T18:20:10;23.40;99.90
39983;DHT22;25670;44.782;10.356;2023-05-07T18:22:37;23.30;99.90